Time;durP1;ratioP1;P1;durP2;ratioP2;P2;SDS_P1;SDS_P2;PMS_P1;PMS_P2;Temp;Humidity;BMP_temperature;BMP_pressure;BME280_temperature;BME280_humidity;BME280_pressure;Samples;Min_cycle;Max_cycle;Signal;HPM_P1;HPM_P2
2023/08/13 00:01:40;;;;;;;11.23;7.73;;;;;;;-141.97;50.13;47438.34;5036633;28;20166;-83
2023/08/13 00:04:05;;;;;;;13.30;7.90;;;;;;;-141.97;50.33;47446.03;5042953;28;20180;-84
2023/08/13 00:06:31;;;;;;;9.43;7.03;;;;;;;-141.97;50.38;47438.34;5042974;28;20166;-84
2023/08/13 00:08:56;;;;;;;10.67;7.20;;;;;;;-141.97;50.58;47438.34;5042759;28;20170;-84
2023/08/13 00:11:21;;;;;;;11.57;7.13;;;;;;;-141.97;50.73;47380.69;5037813;28;20253;-85
2023/08/13 00:13:47;;;;;;;11.93;6.90;;;;;;;-141.97;50.66;47399.91;5033494;28;20171;-85
2023/08/13 00:16:12;;;;;;;11.00;7.20;;;;;;;-141.97;50.73;47484.47;5032770;28;20162;-86
2023/08/13 00:18:38;;;;;;;9.07;6.60;;;;;;;-141.97;51.27;47315.34;5032613;28;20166;-84
2023/08/13 00:21:03;;;;;;;9.73;6.90;;;;;;;-141.97;51.62;47419.13;5032577;28;20284;-83
2023/08/13 00:23:29;;;;;;;10.70;6.57;;;;;;;-141.97;52.00;47428.75;5032848;28;20177;-83
2023/08/13 00:25:54;;;;;;;9.57;6.83;;;;;;;-141.97;52.53;47440.28;5032598;28;20304;-83
2023/08/13 00:28:19;;;;;;;9.53;6.80;;;;;;;-141.97;52.66;47396.06;5019256;28;20329;-83
2023/08/13 00:30:45;;;;;;;11.97;7.00;;;;;;;-141.97;52.63;47469.09;5014000;28;20168;-84
2023/08/13 00:33:10;;;;;;;9.03;6.87;;;;;;;-141.97;52.80;47478.72;5012432;28;20246;-86
2023/08/13 00:35:36;;;;;;;8.33;6.93;;;;;;;-141.97;52.85;47465.25;5012460;28;20185;-86
2023/08/13 00:38:01;;;;;;;11.47;7.27;;;;;;;-141.97;53.01;47348.03;4995014;28;20237;-86
2023/08/13 00:40:27;;;;;;;9.00;7.10;;;;;;;-141.97;53.42;47263.47;5012202;28;20186;-86
2023/08/13 00:42:53;;;;;;;9.70;6.70;;;;;;;-141.97;53.86;47469.09;5012351;28;20671;-86
2023/08/13 00:45:19;;;;;;;9.83;7.10;;;;;;;-141.97;53.99;47432.59;5012103;28;20178;-86
2023/08/13 00:47:44;;;;;;;9.43;7.13;;;;;;;-141.97;54.42;47592.13;5011491;28;20167;-86
2023/08/13 00:50:11;;;;;;;11.87;7.80;;;;;;;-141.97;54.40;47469.09;5011684;28;20171;-85
2023/08/13 00:52:36;;;;;;;10.53;7.73;;;;;;;-141.97;54.57;47421.06;5011582;28;20194;-85
2023/08/13 00:55:02;;;;;;;9.70;7.60;;;;;;;-141.97;54.60;47457.56;5011897;28;20598;-86
2023/08/13 00:57:28;;;;;;;9.63;7.80;;;;;;;-141.97;54.82;47407.59;5011563;28;20170;-86
2023/08/13 00:59:54;;;;;;;15.73;8.17;;;;;;;-141.97;54.97;47457.56;4993784;28;20195;-86
2023/08/13 01:02:21;;;;;;;12.60;7.30;;;;;;;-141.97;54.70;47434.50;5011485;28;20159;-86
2023/08/13 01:04:46;;;;;;;10.63;7.77;;;;;;;-141.97;54.58;47476.78;5011312;28;20159;-86
2023/08/13 01:07:20;;;;;;;11.73;8.00;;;;;;;-141.97;54.47;47453.72;5011016;28;20162;-86
2023/08/13 01:10:09;;;;;;;10.80;8.00;;;;;;;-141.97;54.50;47474.88;5011684;28;20165;-86
2023/08/13 01:12:41;;;;;;;15.17;8.23;;;;;;;-141.97;54.85;47451.81;5011757;28;20226;-87
2023/08/13 01:15:18;;;;;;;10.30;8.00;;;;;;;-141.97;55.20;47497.94;5011770;28;20253;-87
2023/08/13 01:17:47;;;;;;;11.20;8.20;;;;;;;-141.97;55.11;47451.81;5011545;28;20182;-86
2023/08/13 01:20:12;;;;;;;13.73;8.63;;;;;;;-141.97;55.71;47461.41;5011105;28;20206;-87
2023/08/13 01:22:44;;;;;;;13.23;8.30;;;;;;;-141.97;56.28;47480.63;4993526;28;20506;-86
2023/08/13 01:25:11;;;;;;;12.73;7.80;;;;;;;-141.97;56.71;47378.78;5010950;28;20631;-86
2023/08/13 01:27:58;;;;;;;10.30;7.73;;;;;;;-141.97;57.99;47478.72;5011430;28;20250;-86
2023/08/13 01:30:29;;;;;;;11.73;8.33;;;;;;;-141.97;58.95;47471.03;5011201;28;20163;-87
2023/08/13 01:32:59;;;;;;;12.53;8.53;;;;;;;-141.97;58.58;47669.00;5011184;28;20276;-87
2023/08/13 01:35:26;;;;;;;11.43;8.20;;;;;;;-141.97;58.28;47384.53;4993508;28;20170;-87
2023/08/13 01:37:52;;;;;;;10.17;7.90;;;;;;;-141.97;58.26;47480.63;5010935;28;20167;-87
2023/08/13 01:40:19;;;;;;;11.53;7.83;;;;;;;-141.97;58.35;47492.16;5010736;28;20198;-85
2023/08/13 01:42:44;;;;;;;10.47;7.90;;;;;;;-141.97;59.51;47461.41;5010605;28;20182;-85
2023/08/13 01:45:09;;;;;;;11.90;7.80;;;;;;;-141.97;60.08;47507.53;5010705;28;20200;-84
2023/08/13 01:47:35;;;;;;;10.83;8.40;;;;;;;-141.97;60.43;47444.13;5010481;28;20171;-85
2023/08/13 01:50:00;;;;;;;11.17;8.17;;;;;;;-141.97;60.44;47484.47;5010289;28;20662;-84
2023/08/13 01:52:26;;;;;;;9.30;8.17;;;;;;;-141.97;60.50;47472.94;5022532;28;20599;-85
2023/08/13 01:54:54;;;;;;;11.07;8.27;;;;;;;-141.97;59.97;47463.34;5029966;28;20166;-85
2023/08/13 01:57:19;;;;;;;13.20;8.17;;;;;;;-141.97;59.60;47421.06;5030150;28;20174;-85
2023/08/13 01:59:44;;;;;;;12.97;8.43;;;;;;;-141.97;60.35;47442.19;5029612;28;20206;-85
2023/08/13 02:02:10;;;;;;;11.10;8.70;;;;;;;-141.97;61.45;47467.19;5030388;28;20663;-85
2023/08/13 02:04:35;;;;;;;11.70;8.80;;;;;;;-141.97;62.50;47684.38;5043160;28;20176;-85
2023/08/13 02:07:00;;;;;;;11.83;8.43;;;;;;;-141.97;62.05;47346.09;5053499;28;20683;-84
2023/08/13 02:09:26;;;;;;;11.57;8.70;;;;;;;-141.97;63.15;47442.19;5041080;28;20184;-84
2023/08/13 02:11:51;;;;;;;12.13;8.23;;;;;;;-141.97;62.81;47503.69;5030249;28;20168;-84
2023/08/13 02:14:17;;;;;;;12.20;8.50;;;;;;;-141.97;62.53;47476.78;5030429;28;20171;-85
2023/08/13 02:16:42;;;;;;;14.43;8.73;;;;;;;-141.97;62.85;47424.91;5030951;28;20186;-85
2023/08/13 02:19:07;;;;;;;12.43;8.37;;;;;;;-141.97;62.66;47409.53;5037653;28;20170;-84
2023/08/13 02:21:33;;;;;;;12.00;8.53;;;;;;;-141.97;62.40;47419.13;5044597;28;20248;-85
2023/08/13 02:23:58;;;;;;;11.37;9.00;;;;;;;-141.97;62.36;47484.47;5052184;28;20226;-84
2023/08/13 02:26:23;;;;;;;10.23;8.10;;;;;;;-141.97;61.86;47476.78;5035985;28;20730;-85
2023/08/13 02:28:49;;;;;;;10.83;8.27;;;;;;;-141.97;62.31;47476.78;5034226;28;20170;-85
2023/08/13 02:31:14;;;;;;;14.47;8.60;;;;;;;-141.97;62.40;47494.09;5016859;28;20178;-85
2023/08/13 02:33:39;;;;;;;12.60;8.80;;;;;;;-141.97;62.03;47490.25;5034088;28;20585;-84
2023/08/13 02:36:05;;;;;;;11.17;7.80;;;;;;;-141.97;62.71;47386.47;5033518;28;20243;-84
2023/08/13 02:38:30;;;;;;;13.30;8.70;;;;;;;-141.97;63.49;47497.94;5016549;28;20653;-84
2023/08/13 02:40:56;;;;;;;11.37;8.23;;;;;;;-141.97;63.75;47488.31;5035659;28;20201;-85
2023/08/13 02:43:21;;;;;;;10.90;8.77;;;;;;;-141.97;64.51;47505.63;5037654;28;20166;-84
2023/08/13 02:45:47;;;;;;;12.37;8.87;;;;;;;-141.97;65.14;47472.94;5019107;28;20288;-85
2023/08/13 02:48:12;;;;;;;11.80;8.83;;;;;;;-141.97;65.07;47490.25;5033993;28;20158;-85
2023/08/13 02:50:37;;;;;;;11.97;8.67;;;;;;;-141.97;65.20;47292.28;5033361;28;20543;-86
2023/08/13 02:53:03;;;;;;;14.80;9.97;;;;;;;-141.97;65.61;47561.38;5033582;28;20162;-86
2023/08/13 02:55:28;;;;;;;10.53;8.70;;;;;;;-141.97;64.78;47361.47;5033160;28;20179;-86
2023/08/13 02:57:54;;;;;;;15.03;9.20;;;;;;;-141.97;65.05;47482.56;5032224;28;20166;-85
2023/08/13 03:00:19;;;;;;;10.40;8.63;;;;;;;-141.97;65.61;47501.78;5033990;28;20300;-86
2023/08/13 03:02:45;;;;;;;12.00;8.60;;;;;;;-141.97;66.25;47501.78;5033595;28;20641;-83
2023/08/13 03:05:10;;;;;;;13.53;9.23;;;;;;;-141.97;66.03;47499.84;5032874;28;20220;-83
2023/08/13 03:07:35;;;;;;;16.60;8.90;;;;;;;-141.97;65.68;47526.75;5032904;28;20162;-83
2023/08/13 03:10:01;;;;;;;12.30;8.77;;;;;;;-141.97;65.64;47505.63;5015286;28;20228;-84
2023/08/13 03:12:26;;;;;;;14.90;8.83;;;;;;;-141.97;66.20;47515.22;5015144;28;20170;-82
2023/08/13 03:14:52;;;;;;;16.17;9.00;;;;;;;-141.97;65.43;47482.56;5032843;28;20158;-83
2023/08/13 03:17:17;;;;;;;11.80;8.87;;;;;;;-141.97;64.96;47426.81;5032822;28;20182;-81
2023/08/13 03:19:43;;;;;;;10.40;8.57;;;;;;;-141.97;64.86;47476.78;5032373;28;20222;-82
2023/08/13 03:22:08;;;;;;;13.20;8.90;;;;;;;-141.97;65.12;47599.81;5032636;28;20181;-83
2023/08/13 03:24:34;;;;;;;14.33;9.33;;;;;;;-141.97;65.59;47459.50;5032714;28;20180;-82
2023/08/13 03:27:00;;;;;;;12.07;8.80;;;;;;;-141.97;65.80;47474.88;5031960;28;20256;-82
2023/08/13 03:29:25;;;;;;;13.13;8.87;;;;;;;-141.97;65.88;47449.88;5031668;28;20165;-82
2023/08/13 03:31:50;;;;;;;13.90;9.27;;;;;;;-141.97;65.78;47519.06;5032397;28;20206;-83
2023/08/13 03:34:16;;;;;;;12.67;8.73;;;;;;;-141.97;65.41;47496.00;5032800;28;20177;-82
2023/08/13 03:36:41;;;;;;;14.07;8.90;;;;;;;-141.97;65.03;47447.97;5030738;28;20565;-83
2023/08/13 03:39:06;;;;;;;14.63;8.83;;;;;;;-141.97;64.99;47421.06;5032470;28;20185;-83
2023/08/13 03:41:32;;;;;;;12.53;9.00;;;;;;;-141.97;64.85;47447.97;5032367;28;20177;-83
2023/08/13 03:43:57;;;;;;;11.67;9.07;;;;;;;-141.97;64.28;47388.38;5032143;28;20307;-83
2023/08/13 03:46:23;;;;;;;13.20;9.13;;;;;;;-141.97;64.40;47422.97;5032221;28;20170;-82
2023/08/13 03:48:51;;;;;;;12.63;9.27;;;;;;;-141.97;64.11;47513.31;5032449;28;20169;-82
2023/08/13 03:51:17;;;;;;;16.67;9.67;;;;;;;-141.97;64.12;47490.25;5014276;28;20232;-83
2023/08/13 03:53:42;;;;;;;20.57;10.10;;;;;;;-141.97;64.14;47426.81;5032197;28;20158;-83
2023/08/13 03:56:08;;;;;;;14.20;9.77;;;;;;;-141.97;64.25;47411.44;5032341;28;20236;-83
2023/08/13 03:58:34;;;;;;;12.90;9.70;;;;;;;-141.97;63.94;47480.63;5038058;28;20177;-84
2023/08/13 04:01:07;;;;;;;13.97;9.87;;;;;;;-141.97;64.03;47661.31;5018736;28;20201;-84
2023/08/13 04:03:33;;;;;;;14.50;10.33;;;;;;;-141.97;63.91;47532.53;5039810;28;20170;-84
2023/08/13 04:05:59;;;;;;;14.60;9.87;;;;;;;-141.97;63.81;47349.94;5016180;28;20176;-84
2023/08/13 04:08:24;;;;;;;13.30;9.77;;;;;;;-141.97;63.81;47496.00;5032136;28;20178;-84
2023/08/13 04:10:50;;;;;;;13.20;9.40;;;;;;;-141.97;63.93;47474.88;5014435;28;20611;-84
2023/08/13 04:13:15;;;;;;;12.93;8.97;;;;;;;-141.97;63.94;47403.75;5014168;28;20638;-84
2023/08/13 04:15:41;;;;;;;13.77;9.73;;;;;;;-141.97;63.90;47476.78;5032047;28;20170;-84
2023/08/13 04:18:06;;;;;;;14.30;9.03;;;;;;;-141.97;63.41;47482.56;5032068;28;20249;-84
2023/08/13 04:20:32;;;;;;;17.93;9.37;;;;;;;-141.97;63.44;47488.31;5015169;28;20669;-84
2023/08/13 04:22:58;;;;;;;14.93;9.40;;;;;;;-141.97;63.16;47474.88;5031933;28;20231;-84
2023/08/13 04:25:23;;;;;;;13.50;8.70;;;;;;;-141.97;63.00;47442.19;5031471;28;20180;-85
2023/08/13 04:27:49;;;;;;;11.63;8.87;;;;;;;-141.97;62.84;47465.25;5035586;28;20600;-85
2023/08/13 04:30:14;;;;;;;11.10;8.70;;;;;;;-141.97;62.71;47534.44;5047435;28;20163;-80
2023/08/13 04:32:40;;;;;;;12.87;8.83;;;;;;;-141.97;62.63;47469.09;5047547;28;20280;-85
2023/08/13 04:35:06;;;;;;;12.97;9.60;;;;;;;-141.97;62.23;47303.81;5031545;28;20180;-84
2023/08/13 04:37:31;;;;;;;13.27;8.60;;;;;;;-141.97;62.15;47478.72;5031082;28;20166;-83
2023/08/13 04:39:57;;;;;;;12.80;8.97;;;;;;;-141.97;62.35;47484.47;5030856;28;20189;-83
2023/08/13 04:42:23;;;;;;;15.93;9.87;;;;;;;-141.97;62.65;47449.88;5031378;28;20177;-83
2023/08/13 04:44:48;;;;;;;13.90;9.37;;;;;;;-141.97;62.45;47505.63;5030754;28;20167;-83
2023/08/13 04:47:13;;;;;;;13.87;8.87;;;;;;;-141.97;62.17;47336.50;5030683;28;20177;-83
2023/08/13 04:49:39;;;;;;;16.43;9.90;;;;;;;-141.97;61.56;47330.72;5030686;28;20154;-83
2023/08/13 04:52:04;;;;;;;13.53;9.83;;;;;;;-141.97;61.25;47367.25;5030609;28;20255;-83
2023/08/13 04:54:30;;;;;;;12.17;8.80;;;;;;;-141.97;60.73;47449.88;5031566;28;20188;-83
2023/08/13 04:56:55;;;;;;;18.53;9.90;;;;;;;-141.97;60.37;47511.38;5032141;28;20253;-83
2023/08/13 04:59:20;;;;;;;14.37;8.73;;;;;;;-141.97;60.56;47644.00;5031159;28;20166;-82
2023/08/13 05:01:46;;;;;;;11.97;8.50;;;;;;;-141.97;60.13;47476.78;5014789;28;20249;-82
2023/08/13 05:04:12;;;;;;;11.63;8.87;;;;;;;-141.97;59.68;47688.22;5011421;28;20163;-82
2023/08/13 05:06:38;;;;;;;11.30;8.87;;;;;;;-141.97;59.79;47453.72;5011273;28;20221;-83
2023/08/13 05:09:03;;;;;;;15.73;9.07;;;;;;;-141.97;59.49;47426.81;5011711;28;20163;-83
2023/08/13 05:11:29;;;;;;;15.57;9.10;;;;;;;-141.97;59.12;47409.53;5011182;28;20709;-84
2023/08/13 05:13:54;;;;;;;13.20;9.23;;;;;;;-141.97;58.96;47492.16;5011622;28;20174;-83
2023/08/13 05:16:20;;;;;;;12.13;9.53;;;;;;;-141.97;58.67;47332.66;5011356;28;20171;-83
2023/08/13 05:18:45;;;;;;;14.40;8.77;;;;;;;-141.97;57.90;47599.81;5011826;28;20162;-83
2023/08/13 05:21:11;;;;;;;10.77;7.97;;;;;;;-141.97;57.61;47626.72;5011624;28;20665;-84
2023/08/13 05:23:36;;;;;;;11.23;8.07;;;;;;;-141.97;57.16;47557.53;5011271;28;20194;-83
2023/08/13 05:26:02;;;;;;;11.50;8.10;;;;;;;-141.97;56.90;47551.75;5011175;28;20682;-84
2023/08/13 05:28:27;;;;;;;9.33;7.63;;;;;;;-141.97;57.20;47388.38;5011880;28;20174;-83
2023/08/13 05:30:53;;;;;;;14.67;7.43;;;;;;;-141.97;57.46;47461.41;5011075;28;20232;-83
2023/08/13 05:33:18;;;;;;;11.97;7.40;;;;;;;-141.97;57.26;47655.53;5011564;28;20170;-83
2023/08/13 05:35:43;;;;;;;10.67;7.90;;;;;;;-141.97;56.07;47607.50;5011721;28;20810;-83
2023/08/13 05:38:09;;;;;;;8.63;7.17;;;;;;;-141.97;56.42;47451.81;5011458;28;20249;-85
2023/08/13 05:40:35;;;;;;;9.90;7.50;;;;;;;-141.97;56.27;47471.03;4993655;28;20682;-84
2023/08/13 05:43:00;;;;;;;9.07;7.33;;;;;;;-141.97;56.07;47549.84;5011299;28;20182;-82
2023/08/13 05:45:25;;;;;;;10.63;7.93;;;;;;;-141.97;56.20;47323.03;5012099;28;20631;-83
2023/08/13 05:47:51;;;;;;;9.60;7.93;;;;;;;-141.97;55.03;47509.47;4994149;28;20614;-84
2023/08/13 05:50:16;;;;;;;10.80;7.63;;;;;;;-141.97;54.53;47457.56;5012759;28;20175;-83
2023/08/13 05:52:42;;;;;;;9.93;7.77;;;;;;;-141.97;54.47;47488.31;5021505;28;20261;-82
2023/08/13 05:55:07;;;;;;;10.10;7.70;;;;;;;-141.97;54.06;47447.97;4999244;28;20257;-83
2023/08/13 05:57:33;;;;;;;11.30;7.77;;;;;;;-141.97;53.04;47484.47;5010757;28;20167;-84
2023/08/13 05:59:59;;;;;;;10.50;7.20;;;;;;;-141.97;52.80;47380.69;5011067;28;20182;-83
2023/08/13 06:02:25;;;;;;;9.43;6.73;;;;;;;-141.97;52.66;47438.34;5010926;28;20173;-88
2023/08/13 06:04:50;;;;;;;9.70;7.17;;;;;;;-141.97;50.34;47521.00;5010831;28;20175;-83
2023/08/13 06:07:16;;;;;;;8.80;6.40;;;;;;;-141.97;50.79;47467.19;5010806;28;20170;-84
2023/08/13 06:09:41;;;;;;;12.40;6.70;;;;;;;-141.97;50.12;47428.75;5010313;28;20159;-84
2023/08/13 06:12:07;;;;;;;7.87;6.33;;;;;;;-141.97;49.28;47173.13;5010936;28;20190;-86
2023/08/13 06:14:33;;;;;;;9.70;6.20;;;;;;;-141.97;49.65;47472.94;5011319;28;20654;-83
2023/08/13 06:16:58;;;;;;;8.37;5.97;;;;;;;-141.97;50.43;47578.66;5012568;28;20250;-83
2023/08/13 06:19:23;;;;;;;8.33;6.50;;;;;;;-141.97;49.93;47472.94;5018402;28;20171;-82
2023/08/13 06:21:49;;;;;;;10.23;6.13;;;;;;;-141.97;50.17;47469.09;5001034;28;20209;-83
2023/08/13 06:24:14;;;;;;;11.07;6.53;;;;;;;-141.97;49.09;47461.41;5014529;28;20702;-83
2023/08/13 06:26:39;;;;;;;9.63;6.10;;;;;;;-141.97;49.25;47559.44;4993230;28;20222;-83
2023/08/13 06:29:05;;;;;;;10.73;6.50;;;;;;;-141.97;48.83;47501.78;5010492;28;20672;-84
2023/08/13 06:31:30;;;;;;;9.57;5.90;;;;;;;-141.97;47.91;47351.88;5011886;28;20175;-83
2023/08/13 06:33:56;;;;;;;8.90;6.00;;;;;;;-141.97;47.37;47438.34;4992733;28;20174;-83
2023/08/13 06:36:21;;;;;;;7.33;5.77;;;;;;;-141.97;47.25;47415.28;5010158;28;20249;-83
2023/08/13 06:38:46;;;;;;;7.13;5.57;;;;;;;-141.97;46.51;47426.81;5010413;28;20163;-79
2023/08/13 06:41:12;;;;;;;7.47;5.90;;;;;;;-141.97;45.43;47275.00;5009365;28;20545;-80
2023/08/13 06:43:37;;;;;;;6.53;5.63;;;;;;;-141.97;45.26;47409.53;5009489;28;20182;-79
2023/08/13 06:46:03;;;;;;;8.43;5.70;;;;;;;-141.97;45.12;47640.16;5009720;28;20170;-80
2023/08/13 06:48:32;;;;;;;8.73;6.00;;;;;;;-141.97;45.21;47415.28;5009730;28;20171;-80
2023/08/13 06:50:58;;;;;;;7.90;5.70;;;;;;;-141.97;44.87;47426.81;5009810;28;20746;-79
2023/08/13 06:53:24;;;;;;;8.63;5.50;;;;;;;-141.97;44.49;47442.19;5015116;28;20253;-78
2023/08/13 06:55:49;;;;;;;7.63;5.83;;;;;;;-141.97;43.99;47449.88;5019087;28;20636;-79
2023/08/13 06:58:15;;;;;;;7.07;5.80;;;;;;;-141.97;44.19;47446.03;5009805;28;20174;-80
2023/08/13 07:00:41;;;;;;;9.10;6.17;;;;;;;-141.97;44.18;47447.97;5009195;28;20674;-79
2023/08/13 07:03:08;;;;;;;8.50;6.40;;;;;;;-141.97;43.83;47413.38;5009534;28;20198;-78
2023/08/13 07:05:35;;;;;;;10.43;6.23;;;;;;;-141.97;43.36;47476.78;5012875;28;20212;-80
2023/08/13 07:08:00;;;;;;;10.70;6.13;;;;;;;-141.97;43.99;47430.66;5014136;28;20186;-78
2023/08/13 07:10:25;;;;;;;10.63;6.50;;;;;;;-141.97;43.32;47409.53;5014919;28;20167;-84
2023/08/13 07:12:51;;;;;;;11.03;6.30;;;;;;;-141.97;43.57;47422.97;5017429;28;20163;-83
2023/08/13 07:15:16;;;;;;;8.57;6.30;;;;;;;-141.97;42.33;47407.59;5003918;28;20182;-86
2023/08/13 07:17:42;;;;;;;10.83;6.20;;;;;;;-141.97;41.79;47415.28;5021563;28;20170;-85
2023/08/13 07:20:09;;;;;;;8.93;6.63;;;;;;;-141.97;41.72;47415.28;5021400;28;20214;-84
2023/08/13 07:22:37;;;;;;;9.30;6.03;;;;;;;-141.97;40.36;47405.69;5017765;28;20198;-83
2023/08/13 07:25:03;;;;;;;7.37;5.57;;;;;;;-141.97;40.00;47426.81;5014437;28;20252;-84
2023/08/13 07:27:28;;;;;;;8.82;5.90;;;;;;;-141.97;40.11;47411.44;5013464;28;20233;-84
2023/08/13 07:29:54;;;;;;;8.35;5.82;;;;;;;-141.97;39.83;47353.78;5013712;28;20161;-83
2023/08/13 07:32:19;;;;;;;7.35;5.60;;;;;;;-141.97;38.97;47359.56;5013698;28;20168;-84
2023/08/13 07:34:45;;;;;;;7.60;5.57;;;;;;;-141.97;38.29;47415.28;5014034;28;20160;-83
2023/08/13 07:37:10;;;;;;;6.47;5.70;;;;;;;-141.97;38.07;47380.69;5012949;28;20534;-84
2023/08/13 07:39:36;;;;;;;6.97;5.70;;;;;;;-141.97;37.66;47390.31;5013095;28;20197;-84
2023/08/13 07:42:02;;;;;;;6.72;5.75;;;;;;;-141.97;38.61;47396.06;5012794;28;20567;-85
2023/08/13 07:44:28;;;;;;;8.27;5.38;;;;;;;-141.97;39.46;47405.69;5013107;28;20174;-84
2023/08/13 07:46:56;;;;;;;7.25;5.85;;;;;;;-141.97;39.12;47413.38;5013182;28;20155;-84
2023/08/13 07:49:21;;;;;;;7.05;5.20;;;;;;;-141.97;37.97;47384.53;5012651;28;20168;-83
2023/08/13 07:51:47;;;;;;;6.40;5.00;;;;;;;-141.97;37.17;47569.06;5012715;28;20250;-83
2023/08/13 07:54:12;;;;;;;6.72;5.68;;;;;;;-141.97;37.14;47413.38;5012943;28;20253;-84
2023/08/13 07:56:38;;;;;;;7.38;5.30;;;;;;;-141.97;36.34;47369.16;5012345;28;20193;-83
2023/08/13 07:59:04;;;;;;;6.60;5.22;;;;;;;-141.97;35.75;47365.31;5012775;28;20554;-82
2023/08/13 08:01:30;;;;;;;7.28;5.35;;;;;;;-141.97;35.33;47351.88;5012471;28;20183;-83
2023/08/13 08:03:56;;;;;;;5.28;4.70;;;;;;;-141.97;33.98;47359.56;5013150;28;20273;-83
2023/08/13 08:06:21;;;;;;;6.20;5.18;;;;;;;-141.97;34.04;47313.44;5013013;28;20162;-82
2023/08/13 08:08:47;;;;;;;6.38;5.30;;;;;;;-141.97;33.98;47259.63;4995718;28;20175;-82
2023/08/13 08:11:12;;;;;;;5.80;5.07;;;;;;;-141.97;34.17;47336.50;5012770;28;20639;-82
2023/08/13 08:13:38;;;;;;;5.20;4.70;;;;;;;-141.97;33.50;47595.97;5012731;28;20165;-83
2023/08/13 08:16:03;;;;;;;6.57;5.07;;;;;;;-141.97;32.33;47271.16;4994421;28;20331;-85
2023/08/13 08:18:29;;;;;;;6.22;4.63;;;;;;;-141.97;32.75;47465.25;5012383;28;20643;-86
2023/08/13 08:20:55;;;;;;;7.10;4.97;;;;;;;-141.97;33.09;47349.94;4994458;28;20274;-83
2023/08/13 08:23:20;;;;;;;6.07;4.80;;;;;;;-141.97;33.09;47326.88;5011767;28;20262;-83
2023/08/13 08:25:45;;;;;;;6.50;4.82;;;;;;;-141.97;32.58;47311.50;5012354;28;20328;-83
2023/08/13 08:28:11;;;;;;;9.00;4.35;;;;;;;-141.97;31.55;47296.13;5012204;28;20162;-83
2023/08/13 08:30:37;;;;;;;6.47;4.13;;;;;;;-141.97;31.94;47323.03;4994996;28;20185;-85
2023/08/13 08:33:02;;;;;;;5.88;4.72;;;;;;;-141.97;32.63;47313.44;5013096;28;20193;-87
2023/08/13 08:35:28;;;;;;;5.85;4.75;;;;;;;-141.97;32.32;47330.72;5011928;28;20574;-82
2023/08/13 08:37:53;;;;;;;5.70;4.53;;;;;;;-141.97;32.70;47332.66;5012206;28;20174;-84
2023/08/13 08:40:20;;;;;;;4.88;4.38;;;;;;;-141.97;32.55;47357.63;4993959;28;20651;-84
2023/08/13 08:42:46;;;;;;;5.75;4.70;;;;;;;-141.97;32.39;47319.19;4996711;28;20219;-84
2023/08/13 08:45:13;;;;;;;6.50;4.63;;;;;;;-141.97;32.62;47342.25;5013876;28;20270;-80
2023/08/13 08:47:42;;;;;;;5.63;4.32;;;;;;;-141.97;32.13;47336.50;5012721;28;20756;-83
2023/08/13 08:50:11;;;;;;;7.15;4.53;;;;;;;-141.97;31.92;47534.44;5011819;28;20167;-83
2023/08/13 08:52:38;;;;;;;4.88;4.38;;;;;;;-141.97;30.91;47334.56;5011464;28;20562;-83
2023/08/13 08:55:04;;;;;;;6.00;4.45;;;;;;;-141.97;30.79;47265.38;5011710;28;20167;-83
2023/08/13 08:57:29;;;;;;;5.38;4.50;;;;;;;-141.97;31.07;47299.97;5011373;28;20170;-82
2023/08/13 08:59:55;;;;;;;6.30;4.30;;;;;;;-141.97;30.68;47326.88;5011753;28;20202;-89
2023/08/13 09:02:20;;;;;;;5.15;4.65;;;;;;;-141.97;30.75;47326.88;5011675;28;20620;-82
2023/08/13 09:04:46;;;;;;;5.03;4.38;;;;;;;-141.97;30.26;47171.22;5011476;28;20176;-84
2023/08/13 09:07:11;;;;;;;4.50;4.10;;;;;;;-141.97;30.49;47299.97;5011631;28;20178;-85
2023/08/13 09:09:37;;;;;;;6.47;4.75;;;;;;;-141.97;31.44;47546.00;5011221;28;20175;-84
2023/08/13 09:12:03;;;;;;;5.45;4.30;;;;;;;-141.97;31.00;47284.59;5012037;28;20174;-85
2023/08/13 09:14:29;;;;;;;6.18;4.85;;;;;;;-141.97;30.80;47161.59;5015209;28;20165;-85
2023/08/13 09:16:56;;;;;;;5.35;4.63;;;;;;;-141.97;30.88;47319.19;5028131;28;20183;-83
2023/08/13 09:19:24;;;;;;;6.80;4.60;;;;;;;-141.97;31.47;47324.97;5031636;28;20181;-85
2023/08/13 09:21:52;;;;;;;6.20;4.95;;;;;;;-141.97;32.05;47363.41;5012173;28;20208;-83
2023/08/13 09:24:18;;;;;;;7.80;4.65;;;;;;;-141.97;32.03;47326.88;5012203;28;20607;-84
2023/08/13 09:26:44;;;;;;;5.75;4.80;;;;;;;-141.97;32.32;47323.03;5013557;28;20237;-84
2023/08/13 09:29:09;;;;;;;7.78;5.00;;;;;;;-141.97;31.91;47307.66;5018423;28;20170;-84
2023/08/13 09:31:36;;;;;;;5.63;4.80;;;;;;;-141.97;32.36;47355.72;5026060;28;20196;-84
2023/08/13 09:34:02;;;;;;;5.53;4.93;;;;;;;-141.97;32.57;47349.94;5013122;28;20179;-84
2023/08/13 09:36:28;;;;;;;6.22;4.57;;;;;;;-141.97;32.88;47353.78;5014184;28;20174;-82
2023/08/13 09:38:54;;;;;;;5.63;4.93;;;;;;;-141.97;32.68;47342.25;5014274;28;20182;-83
2023/08/13 09:41:20;;;;;;;6.32;4.70;;;;;;;-141.97;32.77;47265.38;5012488;28;20193;-85
2023/08/13 09:43:49;;;;;;;7.95;4.63;;;;;;;-141.97;32.74;47334.56;5012997;28;20631;-85
2023/08/13 09:46:20;;;;;;;7.15;4.82;;;;;;;-141.97;32.54;47311.50;5019836;28;20220;-83
2023/08/13 09:48:47;;;;;;;5.03;4.47;;;;;;;-141.97;32.29;47332.66;5018519;28;20253;-85
2023/08/13 09:51:13;;;;;;;6.88;4.80;;;;;;;-141.97;32.47;47286.53;5014059;28;20181;-82
2023/08/13 09:53:44;;;;;;;8.40;4.95;;;;;;;-141.97;33.52;47330.72;5011731;28;20189;-81
2023/08/13 09:56:12;;;;;;;5.93;5.07;;;;;;;-141.97;33.72;47319.19;5017453;28;20169;-82
2023/08/13 09:58:37;;;;;;;7.68;4.80;;;;;;;-141.97;34.23;47471.03;5016731;28;20173;-81
2023/08/13 10:01:04;;;;;;;6.00;4.78;;;;;;;-141.97;34.22;47394.16;5012889;28;20190;-81
2023/08/13 10:03:31;;;;;;;7.57;4.85;;;;;;;-141.97;34.69;47355.72;5013884;28;20194;-82
2023/08/13 10:05:57;;;;;;;6.97;5.32;;;;;;;-141.97;35.05;47351.88;5014271;28;20166;-82
2023/08/13 10:08:23;;;;;;;7.10;5.28;;;;;;;-141.97;34.65;47396.06;5015119;28;20171;-82
2023/08/13 10:10:48;;;;;;;6.75;5.35;;;;;;;-141.97;35.19;47344.19;5013744;28;20287;-82
2023/08/13 10:13:14;;;;;;;8.50;5.20;;;;;;;-141.97;35.64;47386.47;5013660;28;20198;-83
2023/08/13 10:15:41;;;;;;;7.50;5.20;;;;;;;-141.97;35.80;47363.41;5013864;28;20665;-82
2023/08/13 10:18:06;;;;;;;6.60;4.88;;;;;;;-141.97;35.69;47411.44;4995206;28;20534;-82
2023/08/13 10:20:32;;;;;;;9.07;5.25;;;;;;;-141.97;35.72;47336.50;5010196;28;20275;-80
2023/08/13 10:23:01;;;;;;;8.10;5.38;;;;;;;-141.97;35.69;47359.56;5010958;28;20192;-81
2023/08/13 10:25:33;;;;;;;7.10;5.15;;;;;;;-141.97;35.07;47386.47;5012014;28;20654;-81
2023/08/13 10:27:59;;;;;;;7.15;5.00;;;;;;;-141.97;35.05;47376.84;5010808;28;20274;-81
2023/08/13 10:30:25;;;;;;;5.93;4.95;;;;;;;-141.97;34.77;47296.13;5012330;28;20166;-81
2023/08/13 10:32:54;;;;;;;7.10;5.22;;;;;;;-141.97;34.59;47338.41;5013061;28;20182;-81
2023/08/13 10:35:45;;;;;;;6.35;5.07;;;;;;;-141.97;33.78;47326.88;4994654;28;20665;-82
2023/08/13 10:38:11;;;;;;;6.90;5.05;;;;;;;-141.97;33.10;47332.66;4952221;28;20267;-82
2023/08/13 10:40:36;;;;;;;6.72;5.22;;;;;;;-141.97;32.84;47328.81;4956959;29;20245;-81
2023/08/13 10:43:03;;;;;;;6.72;4.63;;;;;;;-141.97;33.20;47332.66;4954562;29;20190;-82
2023/08/13 10:45:35;;;;;;;8.10;5.15;;;;;;;-141.97;33.16;47315.34;4954202;29;20665;-82
2023/08/13 10:48:05;;;;;;;5.65;4.90;;;;;;;-141.97;33.30;47323.03;4953978;29;20167;-84
2023/08/13 10:50:39;;;;;;;7.15;5.10;;;;;;;-141.97;32.93;47311.50;4953754;29;20163;-81
2023/08/13 10:53:20;;;;;;;7.18;4.97;;;;;;;-141.97;32.61;47323.03;4953171;29;20175;-81
2023/08/13 10:55:48;;;;;;;7.45;5.15;;;;;;;-141.97;34.11;47353.78;4954424;29;20227;-82
2023/08/13 10:58:23;;;;;;;7.93;5.30;;;;;;;-141.97;34.42;47328.81;4962914;28;20184;-81
2023/08/13 11:00:49;;;;;;;6.38;5.07;;;;;;;-141.97;33.85;47592.13;4972811;28;20226;-81
2023/08/13 11:03:22;;;;;;;5.40;4.80;;;;;;;-141.97;33.54;47324.97;4973083;28;20192;-81
2023/08/13 11:05:49;;;;;;;6.07;4.93;;;;;;;-141.97;33.58;47338.41;4973033;28;20612;-82
2023/08/13 11:08:22;;;;;;;7.18;5.10;;;;;;;-141.97;32.89;47367.25;4956503;28;20192;-81
2023/08/13 11:10:48;;;;;;;6.93;5.00;;;;;;;-141.97;32.65;47311.50;4974387;28;20312;-82